sensor_id;sensor_type;location;lat;lon;timestamp;pressure;altitude;pressure_sealevel;temperature;humidity
37778;BME280;23615;51.506;7.678;2022-08-19T00:02:11;99782.41;;;17.17;83.01
37778;BME280;23615;51.506;7.678;2022-08-19T00:04:36;99782.66;;;17.15;82.90
37778;BME280;23615;51.506;7.678;2022-08-19T00:07:04;99795.59;;;17.13;82.99
37778;BME280;23615;51.506;7.678;2022-08-19T00:09:29;99798.88;;;17.10;82.60
37778;BME280;23615;51.506;7.678;2022-08-19T00:11:56;99810.47;;;17.11;82.92
37778;BME280;23615;51.506;7.678;2022-08-19T00:14:23;99809.38;;;17.07;83.06
37778;BME280;23615;51.506;7.678;2022-08-19T00:16:49;99806.41;;;17.03;83.15
37778;BME280;23615;51.506;7.678;2022-08-19T00:19:17;99803.44;;;17.00;83.14
37778;BME280;23615;51.506;7.678;2022-08-19T00:21:42;99811.81;;;16.98;83.14
37778;BME280;23615;51.506;7.678;2022-08-19T00:24:10;99810.19;;;16.97;83.24
37778;BME280;23615;51.506;7.678;2022-08-19T00:26:36;99808.81;;;16.95;83.24
37778;BME280;23615;51.506;7.678;2022-08-19T00:29:03;99809.38;;;16.92;83.20
37778;BME280;23615;51.506;7.678;2022-08-19T00:31:29;99804.53;;;16.89;83.86
37778;BME280;23615;51.506;7.678;2022-08-19T00:33:56;99803.97;;;16.87;84.24
37778;BME280;23615;51.506;7.678;2022-08-19T00:36:21;99801.28;;;16.87;84.22
37778;BME280;23615;51.506;7.678;2022-08-19T00:38:46;99794.56;;;16.84;84.03
37778;BME280;23615;51.506;7.678;2022-08-19T00:41:14;99788.38;;;16.83;84.02
37778;BME280;23615;51.506;7.678;2022-08-19T00:43:40;99792.94;;;16.83;83.82
37778;BME280;23615;51.506;7.678;2022-08-19T00:46:07;99792.16;;;16.82;83.88
37778;BME280;23615;51.506;7.678;2022-08-19T00:48:33;99784.31;;;16.81;83.69
37778;BME280;23615;51.506;7.678;2022-08-19T00:50:59;99788.34;;;16.78;83.74
37778;BME280;23615;51.506;7.678;2022-08-19T00:53:27;99793.19;;;16.76;83.87
37778;BME280;23615;51.506;7.678;2022-08-19T00:55:55;99794.56;;;16.74;83.83
37778;BME280;23615;51.506;7.678;2022-08-19T00:58:26;99790.53;;;16.71;83.95
37778;BME280;23615;51.506;7.678;2022-08-19T01:00:52;99792.66;;;16.69;84.00
37778;BME280;23615;51.506;7.678;2022-08-19T01:03:19;99793.75;;;16.68;84.17
37778;BME280;23615;51.506;7.678;2022-08-19T01:05:47;99800.22;;;16.67;84.29
37778;BME280;23615;51.506;7.678;2022-08-19T01:08:16;99792.69;;;16.64;84.19
37778;BME280;23615;51.506;7.678;2022-08-19T01:10:53;99799.16;;;16.63;84.25
37778;BME280;23615;51.506;7.678;2022-08-19T01:13:23;99795.06;;;16.61;84.32
37778;BME280;23615;51.506;7.678;2022-08-19T01:15:55;99795.06;;;16.61;84.33
37778;BME280;23615;51.506;7.678;2022-08-19T01:18:22;99795.59;;;16.58;84.52
37778;BME280;23615;51.506;7.678;2022-08-19T01:20:48;99788.88;;;16.55;84.75
37778;BME280;23615;51.506;7.678;2022-08-19T01:23:14;99805.03;;;16.55;84.78
37778;BME280;23615;51.506;7.678;2022-08-19T01:25:49;99799.09;;;16.53;84.80
37778;BME280;23615;51.506;7.678;2022-08-19T01:28:27;99792.91;;;16.53;85.03
37778;BME280;23615;51.506;7.678;2022-08-19T01:30:53;99788.59;;;16.52;85.72
37778;BME280;23615;51.506;7.678;2022-08-19T01:33:20;99790.22;;;16.53;85.82
37778;BME280;23615;51.506;7.678;2022-08-19T01:35:46;99787.78;;;16.51;86.38
37778;BME280;23615;51.506;7.678;2022-08-19T01:38:22;99786.72;;;16.52;86.87
37778;BME280;23615;51.506;7.678;2022-08-19T01:40:47;99780.78;;;16.50;87.08
37778;BME280;23615;51.506;7.678;2022-08-19T01:43:12;99778.88;;;16.51;87.00
37778;BME280;23615;51.506;7.678;2022-08-19T01:45:38;99774.06;;;16.53;87.39
37778;BME280;23615;51.506;7.678;2022-08-19T01:48:05;99776.75;;;16.53;87.29
37778;BME280;23615;51.506;7.678;2022-08-19T01:50:32;99773.25;;;16.52;87.05
37778;BME280;23615;51.506;7.678;2022-08-19T01:52:58;99769.75;;;16.52;86.86
37778;BME280;23615;51.506;7.678;2022-08-19T01:55:24;99766.22;;;16.51;86.13
37778;BME280;23615;51.506;7.678;2022-08-19T01:57:56;99764.63;;;16.50;86.00
37778;BME280;23615;51.506;7.678;2022-08-19T02:00:25;99772.69;;;16.50;85.81
37778;BME280;23615;51.506;7.678;2022-08-19T02:02:52;99760.84;;;16.46;85.51
37778;BME280;23615;51.506;7.678;2022-08-19T02:05:18;99759.75;;;16.42;85.36
37778;BME280;23615;51.506;7.678;2022-08-19T02:07:46;99758.97;;;16.36;85.44
37778;BME280;23615;51.506;7.678;2022-08-19T02:10:17;99755.97;;;16.33;85.32
37778;BME280;23615;51.506;7.678;2022-08-19T02:12:43;99763.50;;;16.31;85.55
37778;BME280;23615;51.506;7.678;2022-08-19T02:15:09;99754.38;;;16.27;85.59
37778;BME280;23615;51.506;7.678;2022-08-19T02:17:34;99754.91;;;16.24;85.42
37778;BME280;23615;51.506;7.678;2022-08-19T02:20:00;99771.03;;;16.24;85.85
37778;BME280;23615;51.506;7.678;2022-08-19T02:22:26;99766.47;;;16.24;87.11
37778;BME280;23615;51.506;7.678;2022-08-19T02:24:52;99772.13;;;16.23;88.54
37778;BME280;23615;51.506;7.678;2022-08-19T02:27:18;99785.31;;;16.19;89.06
37778;BME280;23615;51.506;7.678;2022-08-19T02:29:45;99779.94;;;16.19;88.96
37778;BME280;23615;51.506;7.678;2022-08-19T02:32:11;99785.59;;;16.18;88.97
37778;BME280;23615;51.506;7.678;2022-08-19T02:34:36;99781.53;;;16.15;88.60
37778;BME280;23615;51.506;7.678;2022-08-19T02:37:02;99772.09;;;16.13;88.68
37778;BME280;23615;51.506;7.678;2022-08-19T02:39:27;99768.34;;;16.14;88.00
37778;BME280;23615;51.506;7.678;2022-08-19T02:41:52;99759.19;;;16.15;87.62
37778;BME280;23615;51.506;7.678;2022-08-19T02:44:18;99763.25;;;16.17;87.56
37778;BME280;23615;51.506;7.678;2022-08-19T02:46:45;99764.59;;;16.20;87.35
37778;BME280;23615;51.506;7.678;2022-08-19T02:49:11;99767.28;;;16.20;87.33
37778;BME280;23615;51.506;7.678;2022-08-19T02:51:39;99762.72;;;16.20;87.30
37778;BME280;23615;51.506;7.678;2022-08-19T02:54:06;99769.44;;;16.18;87.56
37778;BME280;23615;51.506;7.678;2022-08-19T02:56:34;99772.38;;;16.16;87.63
37778;BME280;23615;51.506;7.678;2022-08-19T02:59:00;99765.63;;;16.14;87.66
37778;BME280;23615;51.506;7.678;2022-08-19T03:01:31;99774.53;;;16.14;87.66
37778;BME280;23615;51.506;7.678;2022-08-19T03:03:59;99770.47;;;16.12;87.66
37778;BME280;23615;51.506;7.678;2022-08-19T03:06:26;99762.41;;;16.12;88.19
37778;BME280;23615;51.506;7.678;2022-08-19T03:08:52;99759.72;;;16.12;88.30
37778;BME280;23615;51.506;7.678;2022-08-19T03:11:26;99763.75;;;16.14;89.08
37778;BME280;23615;51.506;7.678;2022-08-19T03:13:52;99763.75;;;16.14;89.37
37778;BME280;23615;51.506;7.678;2022-08-19T03:16:19;99762.44;;;16.17;90.21
37778;BME280;23615;51.506;7.678;2022-08-19T03:18:45;99756.53;;;16.20;90.84
37778;BME280;23615;51.506;7.678;2022-08-19T03:21:16;99759.22;;;16.20;91.36
37778;BME280;23615;51.506;7.678;2022-08-19T03:23:42;99765.09;;;16.12;92.47
37778;BME280;23615;51.506;7.678;2022-08-19T03:26:07;99765.09;;;16.06;92.10
37778;BME280;23615;51.506;7.678;2022-08-19T03:28:33;99766.44;;;16.04;92.16
37778;BME280;23615;51.506;7.678;2022-08-19T03:31:04;99771.00;;;16.03;92.04
37778;BME280;23615;51.506;7.678;2022-08-19T03:33:31;99772.06;;;16.02;91.70
37778;BME280;23615;51.506;7.678;2022-08-19T03:36:06;99765.34;;;16.00;91.16
37778;BME280;23615;51.506;7.678;2022-08-19T03:38:34;99767.78;;;16.01;91.21
37778;BME280;23615;51.506;7.678;2022-08-19T03:41:05;99771.81;;;15.99;90.78
37778;BME280;23615;51.506;7.678;2022-08-19T03:43:32;99772.31;;;15.96;90.78
37778;BME280;23615;51.506;7.678;2022-08-19T03:46:14;99776.91;;;15.95;90.78
37778;BME280;23615;51.506;7.678;2022-08-19T03:48:40;99774.22;;;15.95;90.60
37778;BME280;23615;51.506;7.678;2022-08-19T03:51:07;99774.47;;;15.94;90.21
37778;BME280;23615;51.506;7.678;2022-08-19T03:53:34;99774.75;;;15.92;89.92
37778;BME280;23615;51.506;7.678;2022-08-19T03:56:00;99782.03;;;15.92;89.81
37778;BME280;23615;51.506;7.678;2022-08-19T03:58:28;99785.78;;;15.91;89.85
37778;BME280;23615;51.506;7.678;2022-08-19T04:00:57;99793.84;;;15.91;89.53
37778;BME280;23615;51.506;7.678;2022-08-19T04:03:24;99788.72;;;15.89;89.36
37778;BME280;23615;51.506;7.678;2022-08-19T04:05:50;99776.59;;;15.87;89.14
37778;BME280;23615;51.506;7.678;2022-08-19T04:08:16;99782.53;;;15.84;89.03
37778;BME280;23615;51.506;7.678;2022-08-19T04:10:44;99792.19;;;15.85;88.93
37778;BME280;23615;51.506;7.678;2022-08-19T04:13:09;99800.56;;;15.83;89.05
37778;BME280;23615;51.506;7.678;2022-08-19T04:15:40;99800.81;;;15.82;88.85
37778;BME280;23615;51.506;7.678;2022-08-19T04:18:07;99793.81;;;15.86;89.50
37778;BME280;23615;51.506;7.678;2022-08-19T04:20:38;99795.19;;;15.88;90.58
37778;BME280;23615;51.506;7.678;2022-08-19T04:23:03;99791.41;;;15.89;92.38
37778;BME280;23615;51.506;7.678;2022-08-19T04:25:35;99782.25;;;15.85;92.58
37778;BME280;23615;51.506;7.678;2022-08-19T04:28:00;99793.00;;;15.85;92.81
37778;BME280;23615;51.506;7.678;2022-08-19T04:30:25;99790.06;;;15.87;93.04
37778;BME280;23615;51.506;7.678;2022-08-19T04:32:51;99792.19;;;15.85;92.76
37778;BME280;23615;51.506;7.678;2022-08-19T04:35:16;99793.00;;;15.85;92.57
37778;BME280;23615;51.506;7.678;2022-08-19T04:37:41;99798.38;;;15.85;92.64
37778;BME280;23615;51.506;7.678;2022-08-19T04:40:07;99807.53;;;15.84;92.71
37778;BME280;23615;51.506;7.678;2022-08-19T04:42:51;99806.47;;;15.85;92.33
37778;BME280;23615;51.506;7.678;2022-08-19T04:45:17;99810.22;;;15.84;91.93
37778;BME280;23615;51.506;7.678;2022-08-19T04:47:43;99809.97;;;15.86;92.05
37778;BME280;23615;51.506;7.678;2022-08-19T04:50:10;99805.38;;;15.86;92.10
37778;BME280;23615;51.506;7.678;2022-08-19T04:52:36;99812.38;;;15.87;92.08
37778;BME280;23615;51.506;7.678;2022-08-19T04:55:02;99807.84;;;15.98;92.93
37778;BME280;23615;51.506;7.678;2022-08-19T04:57:28;99808.97;;;16.02;93.64
37778;BME280;23615;51.506;7.678;2022-08-19T04:59:54;99813.56;;;16.17;94.59
37778;BME280;23615;51.506;7.678;2022-08-19T05:02:20;99812.25;;;16.24;95.16
37778;BME280;23615;51.506;7.678;2022-08-19T05:04:48;99813.88;;;16.25;95.73
37778;BME280;23615;51.506;7.678;2022-08-19T05:07:13;99805.50;;;16.17;95.90
37778;BME280;23615;51.506;7.678;2022-08-19T05:09:38;99813.03;;;16.15;96.28
37778;BME280;23615;51.506;7.678;2022-08-19T05:12:04;99806.81;;;16.14;96.07
37778;BME280;23615;51.506;7.678;2022-08-19T05:14:30;99810.84;;;16.06;96.16
37778;BME280;23615;51.506;7.678;2022-08-19T05:16:56;99804.34;;;16.02;96.40
37778;BME280;23615;51.506;7.678;2022-08-19T05:19:21;99808.16;;;16.01;96.43
37778;BME280;23615;51.506;7.678;2022-08-19T05:22:05;99809.22;;;16.00;96.15
37778;BME280;23615;51.506;7.678;2022-08-19T05:24:49;99813.28;;;16.08;95.93
37778;BME280;23615;51.506;7.678;2022-08-19T05:27:14;99823.78;;;16.15;95.92
37778;BME280;23615;51.506;7.678;2022-08-19T05:29:39;99820.84;;;16.21;96.19
37778;BME280;23615;51.506;7.678;2022-08-19T05:32:06;99821.69;;;16.27;96.57
37778;BME280;23615;51.506;7.678;2022-08-19T05:34:36;99824.09;;;16.33;96.45
37778;BME280;23615;51.506;7.678;2022-08-19T05:37:03;99835.44;;;16.40;96.63
37778;BME280;23615;51.506;7.678;2022-08-19T05:39:32;99832.47;;;16.37;96.99
37778;BME280;23615;51.506;7.678;2022-08-19T05:42:03;99832.47;;;16.42;97.20
37778;BME280;23615;51.506;7.678;2022-08-19T05:44:32;99828.19;;;16.51;97.10
37778;BME280;23615;51.506;7.678;2022-08-19T05:46:59;99826.81;;;16.48;97.42
37778;BME280;23615;51.506;7.678;2022-08-19T05:49:26;99829.00;;;16.52;97.43
37778;BME280;23615;51.506;7.678;2022-08-19T05:51:52;99829.53;;;16.54;97.50
37778;BME280;23615;51.506;7.678;2022-08-19T05:54:18;99831.41;;;16.53;97.56
37778;BME280;23615;51.506;7.678;2022-08-19T05:56:44;99826.84;;;16.59;97.41
37778;BME280;23615;51.506;7.678;2022-08-19T05:59:13;99832.50;;;16.57;97.49
37778;BME280;23615;51.506;7.678;2022-08-19T06:01:41;99825.50;;;16.56;97.62
37778;BME280;23615;51.506;7.678;2022-08-19T06:04:06;99817.16;;;16.53;97.98
37778;BME280;23615;51.506;7.678;2022-08-19T06:06:33;99826.03;;;16.53;98.19
37778;BME280;23615;51.506;7.678;2022-08-19T06:09:00;99820.94;;;16.57;98.22
37778;BME280;23615;51.506;7.678;2022-08-19T06:11:37;99819.88;;;16.68;98.16
37778;BME280;23615;51.506;7.678;2022-08-19T06:14:09;99815.06;;;16.75;97.74
37778;BME280;23615;51.506;7.678;2022-08-19T06:16:40;99820.16;;;16.81;97.71
37778;BME280;23615;51.506;7.678;2022-08-19T06:19:30;99822.31;;;16.90;97.73
37778;BME280;23615;51.506;7.678;2022-08-19T06:22:30;99825.00;;;17.00;97.60
37778;BME280;23615;51.506;7.678;2022-08-19T06:24:58;99829.84;;;17.03;98.13
37778;BME280;23615;51.506;7.678;2022-08-19T06:27:24;99826.34;;;17.07;97.49
37778;BME280;23615;51.506;7.678;2022-08-19T06:29:49;99830.66;;;17.13;97.15
37778;BME280;23615;51.506;7.678;2022-08-19T06:32:16;99828.22;;;17.22;96.54
37778;BME280;23615;51.506;7.678;2022-08-19T06:34:42;99826.31;;;17.33;95.58
37778;BME280;23615;51.506;7.678;2022-08-19T06:37:08;99832.53;;;17.28;95.56
37778;BME280;23615;51.506;7.678;2022-08-19T06:39:37;99818.50;;;17.36;95.54
37778;BME280;23615;51.506;7.678;2022-08-19T06:42:04;99825.47;;;17.42;95.52
37778;BME280;23615;51.506;7.678;2022-08-19T06:44:34;99827.63;;;17.40;95.70
37778;BME280;23615;51.506;7.678;2022-08-19T06:47:06;99828.72;;;17.44;95.60
37778;BME280;23615;51.506;7.678;2022-08-19T06:49:31;99830.84;;;17.52;95.71
37778;BME280;23615;51.506;7.678;2022-08-19T06:51:57;99831.38;;;17.59;95.47
37778;BME280;23615;51.506;7.678;2022-08-19T06:54:24;99834.06;;;17.70;95.53
37778;BME280;23615;51.506;7.678;2022-08-19T06:56:49;99828.09;;;17.78;95.46
37778;BME280;23615;51.506;7.678;2022-08-19T06:59:17;99829.47;;;17.80;95.83
37778;BME280;23615;51.506;7.678;2022-08-19T07:01:47;99831.28;;;18.00;95.72
37778;BME280;23615;51.506;7.678;2022-08-19T07:04:15;99828.75;;;18.14;95.34
37778;BME280;23615;51.506;7.678;2022-08-19T07:06:41;99829.56;;;18.19;95.29
37778;BME280;23615;51.506;7.678;2022-08-19T07:09:08;99834.25;;;18.48;93.76
37778;BME280;23615;51.506;7.678;2022-08-19T07:11:33;99832.06;;;18.50;93.65
37778;BME280;23615;51.506;7.678;2022-08-19T07:14:00;99830.41;;;18.59;93.60
37778;BME280;23615;51.506;7.678;2022-08-19T07:16:25;99833.09;;;18.64;93.88
37778;BME280;23615;51.506;7.678;2022-08-19T07:18:51;99833.03;;;18.74;93.87
37778;BME280;23615;51.506;7.678;2022-08-19T07:21:23;99836.44;;;18.85;93.54
37778;BME280;23615;51.506;7.678;2022-08-19T07:23:50;99845.78;;;19.02;93.24
37778;BME280;23615;51.506;7.678;2022-08-19T07:26:19;99845.34;;;19.19;92.11
37778;BME280;23615;51.506;7.678;2022-08-19T07:28:47;99847.47;;;19.22;91.96
37778;BME280;23615;51.506;7.678;2022-08-19T07:31:15;99853.69;;;19.23;92.21
37778;BME280;23615;51.506;7.678;2022-08-19T07:33:43;99850.34;;;19.36;92.03
37778;BME280;23615;51.506;7.678;2022-08-19T07:36:11;99854.06;;;19.40;92.25
37778;BME280;23615;51.506;7.678;2022-08-19T07:38:39;99858.31;;;19.51;92.03
37778;BME280;23615;51.506;7.678;2022-08-19T07:41:05;99860.44;;;19.83;91.61
37778;BME280;23615;51.506;7.678;2022-08-19T07:43:31;99855.50;;;20.09;89.51
37778;BME280;23615;51.506;7.678;2022-08-19T07:45:57;99854.34;;;20.15;88.66
37778;BME280;23615;51.506;7.678;2022-08-19T07:48:23;99863.44;;;20.24;88.06
37778;BME280;23615;51.506;7.678;2022-08-19T07:50:52;99858.38;;;20.17;88.48
37778;BME280;23615;51.506;7.678;2022-08-19T07:53:17;99861.47;;;20.30;88.23
37778;BME280;23615;51.506;7.678;2022-08-19T07:55:43;99869.28;;;20.31;88.75
37778;BME280;23615;51.506;7.678;2022-08-19T07:58:12;99874.69;;;20.36;88.93
37778;BME280;23615;51.506;7.678;2022-08-19T08:00:38;99878.41;;;20.40;89.06
37778;BME280;23615;51.506;7.678;2022-08-19T08:03:03;99883.25;;;20.43;89.01
37778;BME280;23615;51.506;7.678;2022-08-19T08:05:29;99890.69;;;20.57;88.12
37778;BME280;23615;51.506;7.678;2022-08-19T08:08:13;99886.22;;;20.66;87.32
37778;BME280;23615;51.506;7.678;2022-08-19T08:10:58;99883.84;;;20.78;86.09
37778;BME280;23615;51.506;7.678;2022-08-19T08:13:24;99884.13;;;20.95;85.51
37778;BME280;23615;51.506;7.678;2022-08-19T08:15:50;99868.59;;;21.01;84.71
37778;BME280;23615;51.506;7.678;2022-08-19T08:18:15;99877.84;;;21.13;84.42
37778;BME280;23615;51.506;7.678;2022-08-19T08:20:40;99871.47;;;21.23;84.25
37778;BME280;23615;51.506;7.678;2022-08-19T08:23:05;99878.06;;;21.17;83.47
37778;BME280;23615;51.506;7.678;2022-08-19T08:25:50;99875.13;;;21.32;84.03
37778;BME280;23615;51.506;7.678;2022-08-19T08:28:17;99886.28;;;21.31;83.51
37778;BME280;23615;51.506;7.678;2022-08-19T08:30:43;99882.16;;;21.33;82.68
37778;BME280;23615;51.506;7.678;2022-08-19T08:33:10;99880.78;;;21.36;82.86
37778;BME280;23615;51.506;7.678;2022-08-19T08:35:36;99884.00;;;21.38;83.70
37778;BME280;23615;51.506;7.678;2022-08-19T08:38:02;99876.28;;;21.45;83.51
37778;BME280;23615;51.506;7.678;2022-08-19T08:40:38;99881.72;;;21.58;81.93
37778;BME280;23615;51.506;7.678;2022-08-19T08:43:18;99886.66;;;21.70;81.20
37778;BME280;23615;51.506;7.678;2022-08-19T08:46:01;99890.47;;;21.69;81.39
37778;BME280;23615;51.506;7.678;2022-08-19T08:48:42;99889.06;;;21.72;81.07
37778;BME280;23615;51.506;7.678;2022-08-19T08:51:15;99889.88;;;21.86;81.01
37778;BME280;23615;51.506;7.678;2022-08-19T08:53:44;99895.94;;;21.83;79.89
37778;BME280;23615;51.506;7.678;2022-08-19T08:56:11;99882.44;;;21.78;80.45
37778;BME280;23615;51.506;7.678;2022-08-19T08:58:51;99879.72;;;21.78;80.39
37778;BME280;23615;51.506;7.678;2022-08-19T09:01:19;99889.59;;;21.87;80.81
37778;BME280;23615;51.506;7.678;2022-08-19T09:03:45;99891.13;;;22.07;79.09
37778;BME280;23615;51.506;7.678;2022-08-19T09:09:23;99885.59;;;21.98;78.86
37778;BME280;23615;51.506;7.678;2022-08-19T09:17:14;99885.06;;;22.37;78.36
37778;BME280;23615;51.506;7.678;2022-08-19T09:20:00;99892.78;;;22.58;76.17
37778;BME280;23615;51.506;7.678;2022-08-19T09:22:29;99892.28;;;22.56;74.98
37778;BME280;23615;51.506;7.678;2022-08-19T09:24:54;99888.56;;;22.52;75.31
37778;BME280;23615;51.506;7.678;2022-08-19T09:27:21;99883.16;;;22.38;75.54
37778;BME280;23615;51.506;7.678;2022-08-19T09:29:49;99883.47;;;22.36;76.17
37778;BME280;23615;51.506;7.678;2022-08-19T09:32:15;99879.13;;;22.35;75.36
37778;BME280;23615;51.506;7.678;2022-08-19T09:34:40;99878.91;;;22.46;74.21
37778;BME280;23615;51.506;7.678;2022-08-19T09:37:06;99883.41;;;22.50;72.54
37778;BME280;23615;51.506;7.678;2022-08-19T09:39:31;99879.38;;;22.61;72.90
37778;BME280;23615;51.506;7.678;2022-08-19T09:41:57;99879.66;;;22.60;71.43
37778;BME280;23615;51.506;7.678;2022-08-19T09:44:22;99871.13;;;22.53;72.03
37778;BME280;23615;51.506;7.678;2022-08-19T09:46:48;99871.41;;;22.65;73.63
37778;BME280;23615;51.506;7.678;2022-08-19T09:49:15;99872.38;;;22.69;74.25
37778;BME280;23615;51.506;7.678;2022-08-19T09:51:42;99878.81;;;22.87;72.76
37778;BME280;23615;51.506;7.678;2022-08-19T09:54:07;99875.28;;;22.86;73.02
37778;BME280;23615;51.506;7.678;2022-08-19T09:56:33;99888.56;;;22.88;72.24
37778;BME280;23615;51.506;7.678;2022-08-19T09:58:59;99887.47;;;22.89;72.78
37778;BME280;23615;51.506;7.678;2022-08-19T10:01:27;99887.28;;;22.85;71.80
37778;BME280;23615;51.506;7.678;2022-08-19T10:03:55;99888.06;;;22.86;71.44
37778;BME280;23615;51.506;7.678;2022-08-19T10:06:26;99890.09;;;22.94;71.36
37778;BME280;23615;51.506;7.678;2022-08-19T10:08:54;99881.34;;;23.05;71.51
37778;BME280;23615;51.506;7.678;2022-08-19T10:11:19;99884.38;;;23.26;71.15
37778;BME280;23615;51.506;7.678;2022-08-19T10:13:45;99881.22;;;23.55;69.46
37778;BME280;23615;51.506;7.678;2022-08-19T10:16:15;99878.88;;;23.71;70.70
37778;BME280;23615;51.506;7.678;2022-08-19T10:18:42;99887.69;;;23.76;70.36
37778;BME280;23615;51.506;7.678;2022-08-19T10:21:15;99885.69;;;23.60;69.05
37778;BME280;23615;51.506;7.678;2022-08-19T10:23:43;99881.50;;;23.54;70.31
37778;BME280;23615;51.506;7.678;2022-08-19T10:26:14;99878.97;;;23.57;68.84
37778;BME280;23615;51.506;7.678;2022-08-19T10:28:40;99866.66;;;23.68;69.53
37778;BME280;23615;51.506;7.678;2022-08-19T10:31:12;99869.94;;;23.79;68.75
37778;BME280;23615;51.506;7.678;2022-08-19T10:33:40;99868.88;;;23.97;68.47
37778;BME280;23615;51.506;7.678;2022-08-19T10:36:12;99871.47;;;24.11;67.97
37778;BME280;23615;51.506;7.678;2022-08-19T10:38:40;99869.34;;;23.99;64.88
37778;BME280;23615;51.506;7.678;2022-08-19T10:41:14;99862.47;;;23.93;66.23
37778;BME280;23615;51.506;7.678;2022-08-19T10:43:41;99867.94;;;24.10;65.74
37778;BME280;23615;51.506;7.678;2022-08-19T10:46:11;99863.59;;;24.01;66.53
37778;BME280;23615;51.506;7.678;2022-08-19T10:48:37;99861.34;;;23.94;64.90
37778;BME280;23615;51.506;7.678;2022-08-19T10:51:03;99864.91;;;24.03;65.61
37778;BME280;23615;51.506;7.678;2022-08-19T10:53:47;99858.06;;;24.32;65.81
37778;BME280;23615;51.506;7.678;2022-08-19T10:56:13;99854.41;;;24.53;64.75
37778;BME280;23615;51.506;7.678;2022-08-19T10:58:57;99858.91;;;24.58;64.84
37778;BME280;23615;51.506;7.678;2022-08-19T11:01:23;99852.28;;;24.33;64.34
37778;BME280;23615;51.506;7.678;2022-08-19T11:03:49;99855.47;;;24.18;65.45
37778;BME280;23615;51.506;7.678;2022-08-19T11:06:15;99858.97;;;24.10;65.30
37778;BME280;23615;51.506;7.678;2022-08-19T11:08:41;99848.31;;;23.82;64.44
37778;BME280;23615;51.506;7.678;2022-08-19T11:11:07;99850.50;;;23.72;65.34
37778;BME280;23615;51.506;7.678;2022-08-19T11:13:35;99853.28;;;23.89;66.54
37778;BME280;23615;51.506;7.678;2022-08-19T11:16:09;99852.56;;;24.14;66.43
37778;BME280;23615;51.506;7.678;2022-08-19T11:18:37;99855.84;;;24.51;65.15
37778;BME280;23615;51.506;7.678;2022-08-19T11:23:37;99836.59;;;24.90;63.83
37778;BME280;23615;51.506;7.678;2022-08-19T11:26:02;99841.53;;;25.14;62.97
37778;BME280;23615;51.506;7.678;2022-08-19T11:28:28;99832.72;;;25.17;62.18
37778;BME280;23615;51.506;7.678;2022-08-19T11:30:53;99841.84;;;25.30;61.55
37778;BME280;23615;51.506;7.678;2022-08-19T11:33:18;99845.38;;;25.30;61.50
37778;BME280;23615;51.506;7.678;2022-08-19T11:35:53;99839.72;;;25.35;61.55
37778;BME280;23615;51.506;7.678;2022-08-19T11:38:21;99825.09;;;25.40;61.49
37778;BME280;23615;51.506;7.678;2022-08-19T11:40:54;99830.50;;;25.57;62.27
37778;BME280;23615;51.506;7.678;2022-08-19T11:43:20;99829.06;;;25.51;61.15
37778;BME280;23615;51.506;7.678;2022-08-19T11:45:45;99818.66;;;25.45;62.08
37778;BME280;23615;51.506;7.678;2022-08-19T11:48:13;99823.44;;;25.56;61.72
37778;BME280;23615;51.506;7.678;2022-08-19T11:50:38;99816.59;;;25.80;61.35
37778;BME280;23615;51.506;7.678;2022-08-19T11:53:08;99826.81;;;25.91;60.50
37778;BME280;23615;51.506;7.678;2022-08-19T11:55:39;99831.84;;;25.81;59.92
37778;BME280;23615;51.506;7.678;2022-08-19T11:58:05;99828.28;;;25.89;59.95
37778;BME280;23615;51.506;7.678;2022-08-19T12:00:32;99825.00;;;25.95;59.66
37778;BME280;23615;51.506;7.678;2022-08-19T12:02:59;99822.75;;;25.97;58.96
37778;BME280;23615;51.506;7.678;2022-08-19T12:05:24;99826.78;;;26.00;58.40
37778;BME280;23615;51.506;7.678;2022-08-19T12:07:49;99833.59;;;26.15;58.78
37778;BME280;23615;51.506;7.678;2022-08-19T12:10:15;99830.97;;;26.27;57.73
37778;BME280;23615;51.506;7.678;2022-08-19T12:12:40;99819.50;;;26.33;56.51
37778;BME280;23615;51.506;7.678;2022-08-19T12:15:08;99821.25;;;26.38;55.31
37778;BME280;23615;51.506;7.678;2022-08-19T12:17:34;99825.38;;;25.94;55.37
37778;BME280;23615;51.506;7.678;2022-08-19T12:19:59;99829.00;;;25.68;56.42
37778;BME280;23615;51.506;7.678;2022-08-19T12:22:25;99823.03;;;25.28;58.12
37778;BME280;23615;51.506;7.678;2022-08-19T12:24:50;99827.69;;;25.37;59.27
37778;BME280;23615;51.506;7.678;2022-08-19T12:27:17;99822.41;;;25.69;58.09
37778;BME280;23615;51.506;7.678;2022-08-19T12:29:43;99823.88;;;25.96;58.05
37778;BME280;23615;51.506;7.678;2022-08-19T12:32:08;99819.78;;;26.11;56.84
37778;BME280;23615;51.506;7.678;2022-08-19T12:34:34;99817.13;;;26.23;57.44
37778;BME280;23615;51.506;7.678;2022-08-19T12:37:03;99818.97;;;26.40;56.24
37778;BME280;23615;51.506;7.678;2022-08-19T12:39:29;99806.63;;;26.34;55.13
37778;BME280;23615;51.506;7.678;2022-08-19T12:41:56;99806.63;;;26.34;55.87
37778;BME280;23615;51.506;7.678;2022-08-19T12:44:23;99818.53;;;26.50;55.16
37778;BME280;23615;51.506;7.678;2022-08-19T12:46:48;99802.94;;;26.51;54.66
37778;BME280;23615;51.506;7.678;2022-08-19T12:49:14;99804.59;;;26.64;55.74
37778;BME280;23615;51.506;7.678;2022-08-19T12:51:41;99802.91;;;26.92;55.66
37778;BME280;23615;51.506;7.678;2022-08-19T12:54:06;99798.88;;;26.90;54.58
37778;BME280;23615;51.506;7.678;2022-08-19T12:56:31;99796.81;;;26.87;54.72
37778;BME280;23615;51.506;7.678;2022-08-19T12:59:01;99786.31;;;26.89;55.07
37778;BME280;23615;51.506;7.678;2022-08-19T13:01:26;99791.66;;;26.52;54.99
37778;BME280;23615;51.506;7.678;2022-08-19T13:03:53;99798.00;;;26.65;54.55
37778;BME280;23615;51.506;7.678;2022-08-19T13:06:18;99786.63;;;26.75;54.54
37778;BME280;23615;51.506;7.678;2022-08-19T13:08:43;99793.91;;;26.71;54.28
37778;BME280;23615;51.506;7.678;2022-08-19T13:11:14;99794.13;;;26.66;53.69
37778;BME280;23615;51.506;7.678;2022-08-19T13:13:41;99794.13;;;26.66;53.76
37778;BME280;23615;51.506;7.678;2022-08-19T13:16:09;99793.09;;;26.70;53.46